createdAt,value
2022-08-25T00:00:50.150Z,20.51
2022-08-25T00:01:50.116Z,20.50
2022-08-25T00:02:56.164Z,20.49
2022-08-25T00:03:51.102Z,20.46
2022-08-25T00:04:53.905Z,20.42
2022-08-25T00:05:50.116Z,20.41
2022-08-25T00:06:50.078Z,20.39
2022-08-25T00:07:50.039Z,20.35
2022-08-25T00:08:50.033Z,20.33
2022-08-25T00:09:50.023Z,20.30
2022-08-25T00:11:00.335Z,20.28
2022-08-25T00:11:51.103Z,20.24
2022-08-25T00:12:49.992Z,20.24
2022-08-25T00:13:49.951Z,20.23
2022-08-25T00:14:49.962Z,20.24
2022-08-25T00:15:49.976Z,20.21
2022-08-25T00:16:49.920Z,20.18
2022-08-25T00:17:49.916Z,20.16
2022-08-25T00:18:49.905Z,20.16
2022-08-25T00:19:49.874Z,20.13
2022-08-25T00:20:49.865Z,20.12
2022-08-25T00:21:49.859Z,20.12
2022-08-25T00:22:49.870Z,20.09
2022-08-25T00:23:49.828Z,20.06
2022-08-25T00:24:49.826Z,20.02
2022-08-25T00:25:49.794Z,20.00
2022-08-25T00:26:49.797Z,20.00
2022-08-25T00:27:49.766Z,20.00
2022-08-25T00:28:49.788Z,20.00
2022-08-25T00:29:49.750Z,20.02
2022-08-25T00:30:49.805Z,20.03
2022-08-25T00:31:49.721Z,20.05
2022-08-25T00:32:55.051Z,20.06
2022-08-25T00:33:50.708Z,20.05
2022-08-25T00:34:49.669Z,20.03
2022-08-25T00:35:49.672Z,20.02
2022-08-25T00:36:49.695Z,19.98
2022-08-25T00:37:49.631Z,19.98
2022-08-25T00:38:49.634Z,19.97
2022-08-25T00:39:49.666Z,19.95
2022-08-25T00:40:49.592Z,19.95
2022-08-25T00:41:49.585Z,19.97
2022-08-25T00:42:49.563Z,19.97
2022-08-25T00:43:49.558Z,19.98
2022-08-25T00:44:49.666Z,19.98
2022-08-25T00:45:49.554Z,20.00
2022-08-25T00:46:49.529Z,20.00
2022-08-25T00:47:49.495Z,19.98
2022-08-25T00:48:49.485Z,20.00
2022-08-25T00:49:49.479Z,19.98
2022-08-25T00:50:49.575Z,20.00
2022-08-25T00:51:49.459Z,20.00
2022-08-25T00:52:49.448Z,20.00
2022-08-25T00:53:49.416Z,20.02
2022-08-25T00:54:49.422Z,20.00
2022-08-25T00:55:49.388Z,19.98
2022-08-25T00:56:49.407Z,19.98
2022-08-25T00:57:49.373Z,19.98
2022-08-25T00:58:49.348Z,19.98
2022-08-25T00:59:49.352Z,20.00
2022-08-25T01:00:49.341Z,20.00
2022-08-25T01:01:49.387Z,20.08
2022-08-25T01:02:49.411Z,20.09
2022-08-25T01:03:49.281Z,20.10
2022-08-25T01:04:49.363Z,20.10
2022-08-25T01:05:49.264Z,20.09
2022-08-25T01:06:49.265Z,20.06
2022-08-25T01:07:49.361Z,20.05
2022-08-25T01:08:49.222Z,20.02
2022-08-25T01:09:49.215Z,20.02
2022-08-25T01:10:49.193Z,19.98
2022-08-25T01:11:49.187Z,19.97
2022-08-25T01:12:49.186Z,19.95
2022-08-25T01:13:49.183Z,19.93
2022-08-25T01:14:49.157Z,19.90
2022-08-25T01:15:49.165Z,19.87
2022-08-25T01:16:51.163Z,19.88
2022-08-25T01:17:49.108Z,19.87
2022-08-25T01:18:49.086Z,19.88
2022-08-25T01:19:49.088Z,19.88
2022-08-25T01:20:49.078Z,19.87
2022-08-25T01:21:49.047Z,19.87
2022-08-25T01:22:54.972Z,19.88
2022-08-25T01:23:50.033Z,19.86
2022-08-25T01:24:49.021Z,19.84
2022-08-25T01:25:48.991Z,19.83
2022-08-25T01:26:48.992Z,19.80
2022-08-25T01:27:48.959Z,19.79
2022-08-25T01:28:48.965Z,19.78
2022-08-25T01:29:48.983Z,19.78
2022-08-25T01:30:49.030Z,19.76
2022-08-25T01:31:48.928Z,19.76
2022-08-25T01:32:48.915Z,19.75
2022-08-25T01:33:48.883Z,19.76
2022-08-25T01:34:48.892Z,19.73
2022-08-25T01:35:48.961Z,19.75
2022-08-25T01:36:48.856Z,19.75
2022-08-25T01:37:48.847Z,19.76
2022-08-25T01:38:48.836Z,19.76
2022-08-25T01:39:48.857Z,19.78
2022-08-25T01:40:48.794Z,19.79
2022-08-25T01:41:48.906Z,19.79
2022-08-25T01:42:48.775Z,19.78
2022-08-25T01:43:48.768Z,19.80
2022-08-25T01:44:48.762Z,19.79
2022-08-25T01:45:48.812Z,19.80
2022-08-25T01:46:48.737Z,19.79
2022-08-25T01:47:48.705Z,19.79
2022-08-25T01:48:48.697Z,19.79
2022-08-25T01:49:48.708Z,19.80
2022-08-25T01:50:48.670Z,19.80
2022-08-25T01:51:48.661Z,19.79
2022-08-25T01:52:48.651Z,19.79
2022-08-25T01:53:48.620Z,19.78
2022-08-25T01:54:48.622Z,19.75
2022-08-25T01:55:48.598Z,19.70
2022-08-25T01:56:48.579Z,19.68
2022-08-25T01:59:03.888Z,19.69
2022-08-25T01:59:59.559Z,19.65
2022-08-25T02:00:59.601Z,19.63
2022-08-25T02:02:04.801Z,19.58
2022-08-25T02:03:00.578Z,19.58
2022-08-25T02:03:59.503Z,19.55
2022-08-25T02:04:59.511Z,19.55
2022-08-25T02:05:59.474Z,19.55
2022-08-25T02:06:59.474Z,19.57
2022-08-25T02:07:59.471Z,19.58
2022-08-25T02:08:59.444Z,19.58
2022-08-25T02:10:03.267Z,19.58
2022-08-25T02:10:59.524Z,19.57
2022-08-25T02:11:59.396Z,19.57
2022-08-25T02:12:59.386Z,19.57
2022-08-25T02:13:59.380Z,19.57
2022-08-25T02:14:59.368Z,19.58
2022-08-25T02:15:59.334Z,19.60
2022-08-25T02:16:59.400Z,19.57
2022-08-25T02:17:59.330Z,19.54
2022-08-25T02:18:59.299Z,19.54
2022-08-25T02:19:59.290Z,19.54
2022-08-25T02:20:59.266Z,19.53
2022-08-25T02:21:59.399Z,19.51
2022-08-25T02:22:59.259Z,19.50
2022-08-25T02:23:59.226Z,19.46
2022-08-25T02:24:59.230Z,19.43
2022-08-25T02:25:59.197Z,19.43
2022-08-25T02:26:59.189Z,19.47
2022-08-25T02:27:59.236Z,19.48
2022-08-25T02:28:59.159Z,19.46
2022-08-25T02:29:59.160Z,19.42
2022-08-25T02:31:01.609Z,19.39
2022-08-25T02:31:59.120Z,19.36
2022-08-25T02:32:59.112Z,19.32
2022-08-25T02:33:59.104Z,19.29
2022-08-25T02:34:59.095Z,19.25
2022-08-25T02:35:59.062Z,19.23
2022-08-25T02:36:59.075Z,19.23
2022-08-25T02:37:59.082Z,19.18
2022-08-25T02:38:59.140Z,19.17
2022-08-25T02:39:59.108Z,19.13
2022-08-25T02:40:59.003Z,19.13
2022-08-25T02:41:58.998Z,19.14
2022-08-25T02:42:58.988Z,19.13
2022-08-25T02:43:58.962Z,19.13
2022-08-25T02:44:58.990Z,19.14
2022-08-25T02:45:58.961Z,19.13
2022-08-25T02:46:58.925Z,19.13
2022-08-25T02:47:58.920Z,19.14
2022-08-25T02:48:58.911Z,19.17
2022-08-25T02:49:58.878Z,19.17
2022-08-25T02:50:58.908Z,19.18
2022-08-25T02:51:58.863Z,19.20
2022-08-25T02:52:58.849Z,19.18
2022-08-25T02:53:58.843Z,19.21
2022-08-25T02:54:58.832Z,19.20
2022-08-25T02:55:58.799Z,19.20
2022-08-25T02:56:58.803Z,19.14
2022-08-25T02:57:58.770Z,19.13
2022-08-25T02:58:58.761Z,19.13
2022-08-25T02:59:58.794Z,19.11
2022-08-25T03:00:58.769Z,19.08
2022-08-25T03:01:58.764Z,19.06
2022-08-25T03:02:58.726Z,19.05
2022-08-25T03:03:58.737Z,19.01
2022-08-25T03:04:58.778Z,18.97
2022-08-25T03:05:58.676Z,18.95
2022-08-25T03:06:58.680Z,18.91
2022-08-25T03:07:58.674Z,18.90
2022-08-25T03:08:58.645Z,18.90
2022-08-25T03:09:58.617Z,18.90
2022-08-25T03:10:58.604Z,18.86
2022-08-25T03:11:58.599Z,18.84
2022-08-25T03:12:58.575Z,18.82
2022-08-25T03:13:58.575Z,18.79
2022-08-25T03:14:58.569Z,18.79
2022-08-25T03:15:58.539Z,18.76
2022-08-25T03:16:58.583Z,18.74
2022-08-25T03:18:00.946Z,18.76
2022-08-25T03:18:58.527Z,18.74
2022-08-25T03:19:58.491Z,18.73
2022-08-25T03:20:58.470Z,18.73
2022-08-25T03:21:58.462Z,18.73
2022-08-25T03:22:58.467Z,18.73
2022-08-25T03:23:58.420Z,18.72
2022-08-25T03:24:58.474Z,18.68
2022-08-25T03:25:58.400Z,18.67
2022-08-25T03:26:58.387Z,18.65
2022-08-25T03:27:58.385Z,18.65
2022-08-25T03:28:58.362Z,18.61
2022-08-25T03:29:58.355Z,18.58
2022-08-25T03:30:58.484Z,18.57
2022-08-25T03:31:58.472Z,18.52
2022-08-25T03:32:58.316Z,18.52
2022-08-25T03:33:58.283Z,18.49
2022-08-25T03:34:58.280Z,18.52
2022-08-25T03:35:58.280Z,18.49
2022-08-25T03:36:58.267Z,18.49
2022-08-25T03:37:58.235Z,18.46
2022-08-25T03:38:58.225Z,18.44
2022-08-25T03:39:58.257Z,18.42
2022-08-25T03:40:58.199Z,18.43
2022-08-25T03:41:58.300Z,18.40
2022-08-25T03:42:58.187Z,18.40
2022-08-25T03:43:58.155Z,18.37
2022-08-25T03:44:58.160Z,18.34
2022-08-25T03:45:58.162Z,18.33
2022-08-25T03:46:58.117Z,18.31
2022-08-25T03:47:58.242Z,18.28
2022-08-25T03:48:58.096Z,18.27
2022-08-25T03:49:58.083Z,18.24
2022-08-25T03:50:58.083Z,18.24
2022-08-25T03:51:58.040Z,18.21
2022-08-25T03:52:58.041Z,18.19
2022-08-25T03:53:58.036Z,18.15
2022-08-25T03:54:58.024Z,18.13
2022-08-25T03:55:57.993Z,18.12
2022-08-25T03:56:57.995Z,18.10
2022-08-25T03:57:57.962Z,18.07
2022-08-25T03:58:58.070Z,18.07
2022-08-25T03:59:57.947Z,18.04
2022-08-25T04:00:57.984Z,18.06
2022-08-25T04:01:57.963Z,18.04
2022-08-25T04:02:57.907Z,18.04
2022-08-25T04:03:57.874Z,18.03
2022-08-25T04:04:57.908Z,18.00
2022-08-25T04:05:57.857Z,17.99
2022-08-25T04:06:57.845Z,17.97
2022-08-25T04:07:57.840Z,17.97
2022-08-25T04:08:57.830Z,17.97
2022-08-25T04:09:57.795Z,17.94
2022-08-25T04:10:57.787Z,17.91
2022-08-25T04:11:57.782Z,17.91
2022-08-25T04:12:57.760Z,17.89
2022-08-25T04:13:57.759Z,17.91
2022-08-25T04:14:57.749Z,17.88
2022-08-25T04:15:57.749Z,17.88
2022-08-25T04:16:57.749Z,17.88
2022-08-25T04:17:57.689Z,17.88
2022-08-25T04:18:57.682Z,17.89
2022-08-25T04:19:57.673Z,17.89
2022-08-25T04:20:57.650Z,17.89
2022-08-25T04:21:57.765Z,17.87
2022-08-25T04:22:57.642Z,17.87
2022-08-25T04:23:57.602Z,17.85
2022-08-25T04:24:57.613Z,17.87
2022-08-25T04:25:57.580Z,17.85
2022-08-25T04:26:57.564Z,17.84
2022-08-25T04:27:57.567Z,17.82
2022-08-25T04:28:57.542Z,17.84
2022-08-25T04:29:57.539Z,17.82
2022-08-25T04:30:57.528Z,17.81
2022-08-25T04:31:57.530Z,17.81
2022-08-25T04:32:57.636Z,17.82
2022-08-25T04:33:57.468Z,17.84
2022-08-25T04:34:57.455Z,17.81
2022-08-25T04:35:57.459Z,17.82
2022-08-25T04:36:57.436Z,17.82
2022-08-25T04:37:57.432Z,17.81
2022-08-25T04:38:57.449Z,17.82
2022-08-25T04:39:57.415Z,17.82
2022-08-25T04:40:57.377Z,17.84
2022-08-25T04:41:57.373Z,17.84
2022-08-25T04:42:57.367Z,17.85
2022-08-25T04:43:57.329Z,17.85
2022-08-25T04:44:57.449Z,17.87
2022-08-25T04:45:57.327Z,17.85
2022-08-25T04:46:57.301Z,17.85
2022-08-25T04:47:57.293Z,17.85
2022-08-25T04:48:57.270Z,17.87
2022-08-25T04:49:57.264Z,17.87
2022-08-25T04:50:57.366Z,17.88
2022-08-25T04:51:57.222Z,17.88
2022-08-25T04:52:57.234Z,17.88
2022-08-25T04:53:57.192Z,17.85
2022-08-25T04:54:57.183Z,17.85
2022-08-25T04:56:01.794Z,17.85
2022-08-25T04:56:58.977Z,17.87
2022-08-25T04:57:57.161Z,17.88
2022-08-25T04:58:57.133Z,17.88
2022-08-25T04:59:57.129Z,17.89
2022-08-25T05:00:57.198Z,17.89
2022-08-25T05:01:57.099Z,17.89
2022-08-25T05:02:57.102Z,17.91
2022-08-25T05:03:57.169Z,17.91
2022-08-25T05:04:57.061Z,17.91
2022-08-25T05:05:57.034Z,17.92
2022-08-25T05:06:57.028Z,17.92
2022-08-25T05:07:57.134Z,17.95
2022-08-25T05:08:56.997Z,17.97
2022-08-25T05:09:56.990Z,17.99
2022-08-25T05:10:56.982Z,18.00
2022-08-25T05:11:56.949Z,18.00
2022-08-25T05:12:56.941Z,18.03
2022-08-25T05:13:57.043Z,18.03
2022-08-25T05:14:57.364Z,18.06
2022-08-25T05:15:56.942Z,18.07
2022-08-25T05:16:56.907Z,18.10
2022-08-25T05:17:56.869Z,18.12
2022-08-25T05:18:56.859Z,18.15
2022-08-25T05:19:56.855Z,18.21
2022-08-25T05:20:56.834Z,18.22
2022-08-25T05:21:58.042Z,18.22
2022-08-25T05:22:56.816Z,18.25
2022-08-25T05:23:56.783Z,18.27
2022-08-25T05:24:56.898Z,18.31
2022-08-25T05:25:56.753Z,18.33
2022-08-25T05:26:56.744Z,18.36
2022-08-25T05:27:56.739Z,18.36
2022-08-25T05:28:56.728Z,18.39
2022-08-25T05:29:56.705Z,18.42
2022-08-25T05:30:56.718Z,18.43
2022-08-25T05:31:56.750Z,18.44
2022-08-25T05:32:56.660Z,18.47
2022-08-25T05:33:56.671Z,18.49
2022-08-25T05:34:56.649Z,18.50
2022-08-25T05:35:56.629Z,18.54
2022-08-25T05:36:56.622Z,18.57
2022-08-25T05:37:56.601Z,18.58
2022-08-25T05:38:56.581Z,18.62
2022-08-25T05:39:56.614Z,18.64
2022-08-25T05:40:56.550Z,18.67
2022-08-25T05:41:56.673Z,18.70
2022-08-25T05:42:56.535Z,18.73
2022-08-25T05:43:56.511Z,18.74
2022-08-25T05:44:56.503Z,18.77
2022-08-25T05:45:56.579Z,18.80
2022-08-25T05:46:56.487Z,18.83
2022-08-25T05:47:56.594Z,18.87
2022-08-25T05:48:56.466Z,18.92
2022-08-25T05:49:56.434Z,18.97
2022-08-25T05:50:56.414Z,18.98
2022-08-25T05:51:56.417Z,19.01
2022-08-25T05:52:56.385Z,19.05
2022-08-25T05:53:56.427Z,19.08
2022-08-25T05:54:56.368Z,19.14
2022-08-25T05:55:56.353Z,19.17
2022-08-25T05:56:56.348Z,19.21
2022-08-25T05:57:56.325Z,19.24
2022-08-25T05:58:56.306Z,19.31
2022-08-25T05:59:56.453Z,19.32
2022-08-25T06:00:56.330Z,19.36
2022-08-25T06:01:56.269Z,19.39
2022-08-25T06:02:56.259Z,19.40
2022-08-25T06:03:56.297Z,19.46
2022-08-25T06:04:56.219Z,19.50
2022-08-25T06:05:56.341Z,19.54
2022-08-25T06:06:56.212Z,19.58
2022-08-25T06:07:56.197Z,19.61
2022-08-25T06:08:56.194Z,19.65
2022-08-25T06:09:56.160Z,19.69
2022-08-25T06:10:56.140Z,19.72
2022-08-25T06:11:56.145Z,19.76
2022-08-25T06:12:56.781Z,19.84
2022-08-25T06:13:56.123Z,19.88
2022-08-25T06:14:56.096Z,19.95
2022-08-25T06:15:56.096Z,20.02
2022-08-25T06:16:56.093Z,20.10
2022-08-25T06:18:00.726Z,20.20
2022-08-25T06:18:57.051Z,20.24
2022-08-25T06:19:56.024Z,20.31
2022-08-25T06:20:56.020Z,20.38
2022-08-25T06:21:55.996Z,20.42
2022-08-25T06:22:56.005Z,20.49
2022-08-25T06:23:55.980Z,20.54
2022-08-25T06:24:55.954Z,20.61
2022-08-25T06:25:55.959Z,20.66
2022-08-25T06:26:55.939Z,20.72
2022-08-25T06:27:55.917Z,20.83
2022-08-25T06:28:55.912Z,20.89
2022-08-25T06:29:56.071Z,20.99
2022-08-25T06:30:55.869Z,21.08
2022-08-25T06:31:55.928Z,21.19
2022-08-25T06:32:55.839Z,21.27
2022-08-25T06:33:55.893Z,21.41
2022-08-25T06:34:55.833Z,21.53
2022-08-25T06:35:55.810Z,21.67
2022-08-25T06:36:55.804Z,21.78
2022-08-25T06:37:55.782Z,21.88
2022-08-25T06:38:55.764Z,21.97
2022-08-25T06:39:55.831Z,22.02
2022-08-25T06:40:55.733Z,22.10
2022-08-25T06:41:55.745Z,22.19
2022-08-25T06:42:55.718Z,22.28
2022-08-25T06:44:04.790Z,22.37
2022-08-25T06:44:56.716Z,22.46
2022-08-25T06:45:55.674Z,22.54
2022-08-25T06:46:55.687Z,22.64
2022-08-25T06:47:55.660Z,22.75
2022-08-25T06:48:55.659Z,22.84
2022-08-25T06:49:55.616Z,22.92
2022-08-25T06:50:55.627Z,22.97
2022-08-25T06:51:55.601Z,23.05
2022-08-25T06:52:55.568Z,23.08
2022-08-25T06:53:55.580Z,23.11
2022-08-25T06:54:55.561Z,23.14
2022-08-25T06:55:55.538Z,23.15
2022-08-25T06:56:55.536Z,23.20
2022-08-25T06:57:55.509Z,23.29
2022-08-25T06:58:55.490Z,23.42
2022-08-25T06:59:55.495Z,23.50
2022-08-25T07:00:55.528Z,23.57
2022-08-25T07:01:55.651Z,23.64
2022-08-25T07:02:55.455Z,23.68
2022-08-25T07:03:55.422Z,23.77
2022-08-25T07:04:55.412Z,23.87
2022-08-25T07:05:55.416Z,23.95
2022-08-25T07:06:55.397Z,23.95
2022-08-25T07:07:55.493Z,23.95
2022-08-25T07:08:55.368Z,23.98
2022-08-25T07:09:55.345Z,24.10
2022-08-25T07:10:55.334Z,24.26
2022-08-25T07:11:55.336Z,24.44
2022-08-25T07:12:55.305Z,24.54
2022-08-25T07:13:55.312Z,24.64
2022-08-25T07:15:10.167Z,24.77
2022-08-25T07:15:56.332Z,24.91
2022-08-25T07:16:55.263Z,25.01
2022-08-25T07:17:55.247Z,25.06
2022-08-25T07:18:55.339Z,25.09
2022-08-25T07:19:57.480Z,25.10
2022-08-25T07:20:55.213Z,25.13
2022-08-25T07:21:55.198Z,25.19
2022-08-25T07:22:55.170Z,25.24
2022-08-25T07:23:55.178Z,25.28
2022-08-25T07:24:55.174Z,25.28
2022-08-25T07:25:55.144Z,25.30
2022-08-25T07:26:55.125Z,25.37
2022-08-25T07:27:58.675Z,25.39
2022-08-25T07:28:55.105Z,25.53
2022-08-25T07:29:55.083Z,25.64
2022-08-25T07:30:55.086Z,25.82
2022-08-25T07:31:55.097Z,25.91
2022-08-25T07:32:55.106Z,26.02
2022-08-25T07:33:56.039Z,26.02
2022-08-25T07:34:55.020Z,25.93
2022-08-25T07:35:54.995Z,26.01
2022-08-25T07:36:55.022Z,26.04
2022-08-25T07:37:54.975Z,26.06
2022-08-25T07:38:54.958Z,26.21
2022-08-25T07:39:55.018Z,26.12
2022-08-25T07:40:57.102Z,26.17
2022-08-25T07:41:55.059Z,26.29
2022-08-25T07:42:54.915Z,26.36
2022-08-25T07:43:54.892Z,26.49
2022-08-25T07:44:54.890Z,26.52
2022-08-25T07:45:54.859Z,26.61
2022-08-25T07:46:54.868Z,26.80
2022-08-25T07:47:54.883Z,26.94
2022-08-25T07:48:54.822Z,27.01
2022-08-25T07:49:54.825Z,27.14
2022-08-25T07:50:54.806Z,27.20
2022-08-25T07:52:05.708Z,27.38
2022-08-25T07:52:55.792Z,27.43
2022-08-25T07:53:54.774Z,27.53
2022-08-25T07:54:54.755Z,27.66
2022-08-25T07:55:54.781Z,27.84
2022-08-25T07:56:54.728Z,27.99
2022-08-25T07:57:56.317Z,28.10
2022-08-25T07:58:54.815Z,28.25
2022-08-25T07:59:54.689Z,28.29
2022-08-25T08:00:54.657Z,28.31
2022-08-25T08:01:54.794Z,28.36
2022-08-25T08:02:54.674Z,28.48
2022-08-25T08:03:54.693Z,28.46
2022-08-25T08:04:54.624Z,28.53
2022-08-25T08:05:54.597Z,28.56
2022-08-25T08:06:54.579Z,28.65
2022-08-25T08:07:54.585Z,28.80
2022-08-25T08:08:54.891Z,29.03
2022-08-25T08:10:13.636Z,29.10
2022-08-25T08:11:05.031Z,29.22
2022-08-25T08:11:55.533Z,29.33
2022-08-25T08:12:54.501Z,29.31
2022-08-25T08:13:54.504Z,29.18
2022-08-25T08:14:54.486Z,29.35
2022-08-25T08:15:54.531Z,29.35
2022-08-25T08:16:54.457Z,29.29
2022-08-25T08:17:54.442Z,29.26
2022-08-25T08:18:54.424Z,29.25
2022-08-25T08:19:54.427Z,29.35
2022-08-25T08:20:54.395Z,29.66
2022-08-25T08:21:54.399Z,29.92
2022-08-25T08:22:54.378Z,29.93
2022-08-25T08:23:58.538Z,29.81
2022-08-25T08:24:56.189Z,29.99
2022-08-25T08:25:54.350Z,30.14
2022-08-25T08:26:59.229Z,30.12
2022-08-25T08:27:55.007Z,29.93
2022-08-25T08:28:54.301Z,29.82
2022-08-25T08:29:54.278Z,29.82
2022-08-25T08:30:54.296Z,29.97
2022-08-25T08:31:54.321Z,29.94
2022-08-25T08:33:12.059Z,30.18
2022-08-25T08:33:55.241Z,30.38
2022-08-25T08:34:54.222Z,30.36
2022-08-25T08:35:54.202Z,30.59
2022-08-25T08:36:54.192Z,30.64
2022-08-25T08:37:54.179Z,30.54
2022-08-25T08:38:54.151Z,30.43
2022-08-25T08:39:54.182Z,30.45
2022-08-25T08:40:54.124Z,30.76
2022-08-25T08:42:10.858Z,30.76
2022-08-25T08:42:55.117Z,30.98
2022-08-25T08:43:54.111Z,31.05
2022-08-25T08:44:55.368Z,30.99
2022-08-25T08:45:54.067Z,30.91
2022-08-25T08:46:54.109Z,30.96
2022-08-25T08:47:54.177Z,30.93
2022-08-25T08:48:54.305Z,31.01
2022-08-25T08:49:54.022Z,31.18
2022-08-25T08:50:54.002Z,31.61
2022-08-25T08:51:54.330Z,31.92
2022-08-25T08:52:53.981Z,31.73
2022-08-25T08:53:53.989Z,31.39
2022-08-25T08:54:53.944Z,31.21
2022-08-25T08:55:53.943Z,31.18
2022-08-25T08:56:53.929Z,31.17
2022-08-25T08:57:53.902Z,31.20
2022-08-25T08:58:53.881Z,31.28
2022-08-25T08:59:53.896Z,31.72
2022-08-25T09:00:53.862Z,32.05
2022-08-25T09:01:54.126Z,32.14
2022-08-25T09:02:53.886Z,32.40
2022-08-25T09:03:55.449Z,32.67
2022-08-25T09:04:53.819Z,32.93
2022-08-25T09:05:53.795Z,33.01
2022-08-25T09:06:53.785Z,33.26
2022-08-25T09:07:54.901Z,33.43
2022-08-25T09:08:53.755Z,33.58
2022-08-25T09:09:53.760Z,33.45
2022-08-25T09:10:54.195Z,33.51
2022-08-25T09:11:53.717Z,33.45
2022-08-25T09:13:53.709Z,33.26
2022-08-25T09:14:54.287Z,33.22
2022-08-25T09:15:54.652Z,33.14
2022-08-25T09:16:53.665Z,32.98
2022-08-25T09:17:54.406Z,32.64
2022-08-25T09:18:53.627Z,32.47
2022-08-25T09:19:53.624Z,32.44
2022-08-25T09:20:53.631Z,32.36
2022-08-25T09:21:53.606Z,32.33
2022-08-25T09:22:53.706Z,32.59
2022-08-25T09:23:53.564Z,32.99
2022-08-25T09:24:53.556Z,32.96
2022-08-25T09:25:53.988Z,33.14
2022-08-25T09:26:53.523Z,33.39
2022-08-25T09:27:53.525Z,33.34
2022-08-25T09:28:53.506Z,33.37
2022-08-25T09:29:53.488Z,33.48
2022-08-25T09:30:53.531Z,33.67
2022-08-25T09:31:53.480Z,34.01
2022-08-25T09:32:53.436Z,34.36
2022-08-25T09:33:53.445Z,34.38
2022-08-25T09:34:53.433Z,34.41
2022-08-25T09:35:53.625Z,34.31
2022-08-25T09:36:53.601Z,34.42
2022-08-25T09:37:53.379Z,34.38
2022-08-25T09:38:53.359Z,33.61
2022-08-25T09:39:53.385Z,33.19
2022-08-25T09:40:53.330Z,32.86
2022-08-25T09:41:53.344Z,32.39
2022-08-25T09:42:57.686Z,32.15
2022-08-25T09:43:54.300Z,32.62
2022-08-25T09:44:53.283Z,32.88
2022-08-25T09:45:53.330Z,33.36
2022-08-25T09:46:53.296Z,33.80
2022-08-25T09:47:53.243Z,33.83
2022-08-25T09:48:56.421Z,33.92
2022-08-25T09:49:53.215Z,32.67
2022-08-25T09:50:53.204Z,31.39
2022-08-25T09:51:53.199Z,30.71
2022-08-25T09:52:53.452Z,30.15
2022-08-25T09:53:53.177Z,30.53
2022-08-25T09:54:53.176Z,30.87
2022-08-25T09:55:53.137Z,31.99
2022-08-25T09:56:54.143Z,32.99
2022-08-25T09:57:53.229Z,33.61
2022-08-25T09:58:53.098Z,34.11
2022-08-25T09:59:57.713Z,34.45
2022-08-25T10:00:53.092Z,34.58
2022-08-25T10:01:53.147Z,33.67
2022-08-25T10:02:53.070Z,33.15
2022-08-25T10:03:53.076Z,33.15
2022-08-25T10:04:53.112Z,33.57
2022-08-25T10:05:56.360Z,33.74
2022-08-25T10:06:53.006Z,33.89
2022-08-25T10:07:52.973Z,33.95
2022-08-25T10:08:52.984Z,33.29
2022-08-25T10:09:52.954Z,32.21
2022-08-25T10:10:52.943Z,31.73
2022-08-25T10:11:57.739Z,32.20
2022-08-25T10:12:53.914Z,32.92
2022-08-25T10:13:52.909Z,33.65
2022-08-25T10:14:52.900Z,34.26
2022-08-25T10:15:52.939Z,34.50
2022-08-25T10:16:52.856Z,34.39
2022-08-25T10:17:52.860Z,34.42
2022-08-25T10:18:52.961Z,34.24
2022-08-25T10:19:52.817Z,34.11
2022-08-25T10:20:52.822Z,34.36
2022-08-25T10:21:52.789Z,34.44
2022-08-25T10:22:52.789Z,34.91
2022-08-25T10:23:52.802Z,35.06
2022-08-25T10:24:52.760Z,35.15
2022-08-25T10:25:59.444Z,35.36
2022-08-25T10:26:53.744Z,35.32
2022-08-25T10:27:52.711Z,35.20
2022-08-25T10:28:52.717Z,35.02
2022-08-25T10:29:52.792Z,35.03
2022-08-25T10:30:52.702Z,34.69
2022-08-25T10:31:52.682Z,34.84
2022-08-25T10:32:52.668Z,34.84
2022-08-25T10:33:52.634Z,34.66
2022-08-25T10:34:52.650Z,33.71
2022-08-25T10:35:52.628Z,33.94
2022-08-25T10:36:52.605Z,34.39
2022-08-25T10:37:52.600Z,34.80
2022-08-25T10:38:52.592Z,35.30
2022-08-25T10:39:55.396Z,35.76
2022-08-25T10:40:52.570Z,35.77
2022-08-25T10:41:53.522Z,35.72
2022-08-25T10:42:52.527Z,34.99
2022-08-25T10:43:52.524Z,33.97
2022-08-25T10:44:52.500Z,33.52
2022-08-25T10:45:52.654Z,33.45
2022-08-25T10:46:52.492Z,32.80
2022-08-25T10:47:52.451Z,32.17
2022-08-25T10:48:52.473Z,32.18
2022-08-25T10:49:52.432Z,32.15
2022-08-25T10:50:52.422Z,32.95
2022-08-25T10:51:52.417Z,33.68
2022-08-25T10:52:52.403Z,34.14
2022-08-25T10:53:52.396Z,33.53
2022-08-25T10:54:52.387Z,33.07
2022-08-25T10:55:52.355Z,32.77
2022-08-25T10:56:53.082Z,32.89
2022-08-25T10:57:52.335Z,33.67
2022-08-25T10:58:52.323Z,34.34
2022-08-25T10:59:52.320Z,34.76
2022-08-25T11:00:52.297Z,34.89
2022-08-25T11:01:53.594Z,35.11
2022-08-25T11:02:52.282Z,34.66
2022-08-25T11:03:52.249Z,33.55
2022-08-25T11:04:52.318Z,32.67
2022-08-25T11:05:52.246Z,31.82
2022-08-25T11:06:54.674Z,31.15
2022-08-25T11:07:52.210Z,31.36
2022-08-25T11:08:52.204Z,31.45
2022-08-25T11:09:52.174Z,32.30
2022-08-25T11:10:52.171Z,33.36
2022-08-25T11:11:52.168Z,34.22
2022-08-25T11:12:52.143Z,34.24
2022-08-25T11:13:52.137Z,33.73
2022-08-25T11:14:52.135Z,33.65
2022-08-25T11:16:15.578Z,33.95
2022-08-25T11:16:53.154Z,34.50
2022-08-25T11:17:52.075Z,34.50
2022-08-25T11:18:52.067Z,33.82
2022-08-25T11:19:52.075Z,33.26
2022-08-25T11:20:52.061Z,32.89
2022-08-25T11:21:52.027Z,32.58
2022-08-25T11:22:52.128Z,33.07
2022-08-25T11:23:52.012Z,32.84
2022-08-25T11:24:52.002Z,32.74
2022-08-25T11:25:51.992Z,32.64
2022-08-25T11:26:51.983Z,32.05
2022-08-25T11:27:51.959Z,31.61
2022-08-25T11:28:51.968Z,31.54
2022-08-25T11:29:51.922Z,31.26
2022-08-25T11:30:51.991Z,31.12
2022-08-25T11:31:53.627Z,31.53
2022-08-25T11:32:51.895Z,31.31
2022-08-25T11:33:51.918Z,31.31
2022-08-25T11:34:51.877Z,32.22
2022-08-25T11:35:51.846Z,32.93
2022-08-25T11:36:51.841Z,32.58
2022-08-25T11:37:51.838Z,32.14
2022-08-25T11:38:51.828Z,32.27
2022-08-25T11:39:51.840Z,33.31
2022-08-25T11:40:51.810Z,33.11
2022-08-25T11:41:51.778Z,33.26
2022-08-25T11:42:51.768Z,33.82
2022-08-25T11:43:51.766Z,34.01
2022-08-25T11:44:53.623Z,33.22
2022-08-25T11:45:54.062Z,33.73
2022-08-25T11:46:51.730Z,34.02
2022-08-25T11:47:51.699Z,34.29
2022-08-25T11:48:51.701Z,34.38
2022-08-25T11:49:51.789Z,34.24
2022-08-25T11:50:51.660Z,34.39
2022-08-25T11:51:51.655Z,34.61
2022-08-25T11:52:51.633Z,34.42
2022-08-25T11:53:51.626Z,34.46
2022-08-25T11:54:55.076Z,33.48
2022-08-25T11:55:51.693Z,33.20
2022-08-25T11:56:51.590Z,33.86
2022-08-25T11:57:53.437Z,34.36
2022-08-25T11:58:51.555Z,34.66
2022-08-25T11:59:51.592Z,34.63
2022-08-25T12:00:51.526Z,34.86
2022-08-25T12:01:51.528Z,35.39
2022-08-25T12:02:51.510Z,35.91
2022-08-25T12:03:51.564Z,36.43
2022-08-25T12:04:51.583Z,36.91
2022-08-25T12:05:51.449Z,36.42
2022-08-25T12:06:52.948Z,36.07
2022-08-25T12:07:51.433Z,35.88
2022-08-25T12:08:51.431Z,35.76
2022-08-25T12:09:51.399Z,36.03
2022-08-25T12:10:51.398Z,36.39
2022-08-25T12:11:51.395Z,36.43
2022-08-25T12:12:51.379Z,35.15
2022-08-25T12:13:51.365Z,34.92
2022-08-25T12:14:51.356Z,35.32
2022-08-25T12:15:51.332Z,35.99
2022-08-25T12:16:51.476Z,36.65
2022-08-25T12:17:51.404Z,37.26
2022-08-25T12:19:51.544Z,37.74
2022-08-25T12:19:58.047Z,37.73
2022-08-25T12:20:58.018Z,37.38
2022-08-25T12:21:58.016Z,37.19
2022-08-25T12:22:58.021Z,37.28
2022-08-25T12:23:57.967Z,37.07
2022-08-25T12:24:57.970Z,36.95
2022-08-25T12:25:57.961Z,36.63
2022-08-25T12:26:57.954Z,36.33
2022-08-25T12:27:57.918Z,35.79
2022-08-25T12:28:58.056Z,35.11
2022-08-25T12:29:57.897Z,34.23
2022-08-25T12:30:57.946Z,33.94
2022-08-25T12:32:04.455Z,33.79
2022-08-25T12:32:58.861Z,34.09
2022-08-25T12:33:57.859Z,34.66
2022-08-25T12:34:57.854Z,34.46
2022-08-25T12:35:57.846Z,34.39
2022-08-25T12:36:57.831Z,33.65
2022-08-25T12:37:57.793Z,34.17
2022-08-25T12:38:58.140Z,34.94
2022-08-25T12:40:51.958Z,35.21
2022-08-25T12:40:57.777Z,35.77
2022-08-25T12:41:57.817Z,36.26
2022-08-25T12:42:57.737Z,35.77
2022-08-25T12:43:57.730Z,35.10
2022-08-25T12:44:57.727Z,34.95
2022-08-25T12:45:57.861Z,35.21
2022-08-25T12:46:57.701Z,35.35
2022-08-25T12:47:57.669Z,35.88
2022-08-25T12:48:57.701Z,36.06
2022-08-25T12:49:57.648Z,36.45
2022-08-25T12:50:57.639Z,36.90
2022-08-25T12:52:20.770Z,37.09
2022-08-25T12:52:57.611Z,36.83
2022-08-25T12:54:56.685Z,36.39
2022-08-25T12:55:01.385Z,36.17